createdAt,value
2023-02-16T00:01:51.003Z,11.88
2023-02-16T00:04:21.811Z,11.75
2023-02-16T00:06:49.609Z,12.18
2023-02-16T00:09:18.682Z,12.38
2023-02-16T00:12:05.045Z,11.52
2023-02-16T00:14:35.006Z,12.18
2023-02-16T00:17:02.466Z,10.02
2023-02-16T00:19:33.839Z,13.00
2023-02-16T00:22:01.503Z,11.90
2023-02-16T00:24:31.182Z,12.95
2023-02-16T00:26:58.942Z,12.63
2023-02-16T00:29:27.814Z,11.32
2023-02-16T00:31:57.504Z,11.57
2023-02-16T00:34:31.731Z,9.57
2023-02-16T00:36:59.928Z,11.52
2023-02-16T00:39:27.247Z,13.13
2023-02-16T00:41:56.068Z,11.88
2023-02-16T00:44:31.011Z,12.20
2023-02-16T00:47:01.176Z,10.98
2023-02-16T00:49:27.905Z,12.38
2023-02-16T00:51:55.943Z,12.07
2023-02-16T00:54:22.836Z,11.50
2023-02-16T00:56:49.625Z,11.57
2023-02-16T00:59:20.670Z,12.02
2023-02-16T01:01:49.076Z,13.13
2023-02-16T01:04:22.443Z,12.45
2023-02-16T01:07:08.536Z,13.07
2023-02-16T01:09:53.574Z,11.25
2023-02-16T01:12:22.441Z,11.80
2023-02-16T01:14:53.504Z,11.82
2023-02-16T01:17:20.350Z,13.20
2023-02-16T01:19:48.437Z,11.32
2023-02-16T01:22:15.841Z,11.82
2023-02-16T01:24:44.045Z,12.50
2023-02-16T01:27:12.565Z,11.65
2023-02-16T01:29:39.464Z,11.20
2023-02-16T01:32:06.541Z,12.32
2023-02-16T01:34:33.357Z,12.45
2023-02-16T01:37:01.562Z,11.88
2023-02-16T01:39:28.308Z,13.25
2023-02-16T01:42:09.610Z,12.20
2023-02-16T01:44:41.288Z,11.30
2023-02-16T01:47:16.535Z,12.73
2023-02-16T01:49:43.271Z,11.70
2023-02-16T01:52:20.980Z,11.57
2023-02-16T01:54:53.503Z,11.15
2023-02-16T01:57:30.257Z,12.13
2023-02-16T02:00:05.904Z,14.00
2023-02-16T02:02:36.139Z,10.65
2023-02-16T02:05:27.041Z,10.60
2023-02-16T02:08:01.147Z,11.00
2023-02-16T02:10:34.880Z,12.85
2023-02-16T02:13:07.445Z,12.25
2023-02-16T02:15:35.098Z,12.35
2023-02-16T02:18:02.506Z,12.63
2023-02-16T02:21:00.288Z,12.10
2023-02-16T02:23:45.235Z,11.82
2023-02-16T02:26:59.899Z,10.43
2023-02-16T02:29:49.829Z,10.77
2023-02-16T02:35:01.500Z,10.48
2023-02-16T02:37:39.627Z,10.63
2023-02-16T02:40:14.997Z,10.68
2023-02-16T02:42:51.652Z,11.15
2023-02-16T02:45:26.932Z,11.25
2023-02-16T02:47:53.884Z,11.48
2023-02-16T02:50:39.301Z,11.65
2023-02-16T02:53:10.852Z,11.23
2023-02-16T02:56:01.717Z,11.27
2023-02-16T02:58:51.653Z,11.38
2023-02-16T03:03:51.137Z,10.90
2023-02-16T03:06:22.268Z,10.93
2023-02-16T03:08:54.777Z,11.52
2023-02-16T03:11:42.773Z,11.65
2023-02-16T03:14:15.948Z,11.70
2023-02-16T03:16:48.310Z,11.32
2023-02-16T03:19:36.588Z,11.07
2023-02-16T03:22:23.218Z,11.55
2023-02-16T03:25:08.836Z,10.75
2023-02-16T03:27:59.488Z,11.90
2023-02-16T03:30:28.004Z,10.55
2023-02-16T03:32:56.490Z,12.00
2023-02-16T03:35:23.667Z,12.63
2023-02-16T03:37:50.464Z,14.50
2023-02-16T03:40:29.951Z,12.27
2023-02-16T03:42:58.659Z,12.50
2023-02-16T03:45:25.531Z,12.48
2023-02-16T03:47:52.424Z,11.50
2023-02-16T03:50:20.623Z,11.30
2023-02-16T03:52:47.655Z,11.63
2023-02-16T03:55:15.486Z,11.40
2023-02-16T03:57:42.345Z,11.45
2023-02-16T04:00:10.097Z,11.50
2023-02-16T04:02:36.891Z,14.10
2023-02-16T04:05:03.722Z,12.25
2023-02-16T04:07:31.989Z,10.55
2023-02-16T04:09:58.668Z,12.05
2023-02-16T04:12:37.218Z,11.95
2023-02-16T04:15:06.500Z,13.15
2023-02-16T04:17:33.180Z,11.68
2023-02-16T04:19:59.970Z,11.32
2023-02-16T04:22:26.790Z,12.38
2023-02-16T04:24:54.988Z,12.25
2023-02-16T04:27:21.805Z,12.30
2023-02-16T04:29:48.620Z,12.95
2023-02-16T04:32:15.437Z,11.75
2023-02-16T04:34:42.244Z,12.13
2023-02-16T04:37:09.005Z,12.30
2023-02-16T04:39:35.783Z,11.55
2023-02-16T04:42:04.276Z,12.48
2023-02-16T04:44:31.012Z,11.82
2023-02-16T04:46:57.839Z,12.25
2023-02-16T04:49:24.503Z,12.80
2023-02-16T04:51:51.487Z,11.73
2023-02-16T04:54:18.451Z,13.02
2023-02-16T04:56:45.953Z,11.75
2023-02-16T04:59:15.384Z,12.45
2023-02-16T05:01:42.957Z,11.68
2023-02-16T05:04:10.159Z,11.63
2023-02-16T05:06:37.532Z,12.55
2023-02-16T05:09:05.224Z,11.15
2023-02-16T05:11:50.888Z,13.80
2023-02-16T05:14:41.039Z,14.63
2023-02-16T05:17:08.564Z,12.15
2023-02-16T05:19:35.262Z,12.23
2023-02-16T05:22:02.374Z,12.45
2023-02-16T05:24:29.093Z,12.40
2023-02-16T05:26:55.862Z,11.43
2023-02-16T05:29:24.148Z,12.10
2023-02-16T05:31:51.164Z,11.60
2023-02-16T05:34:18.292Z,13.73
2023-02-16T05:36:45.066Z,13.00
2023-02-16T05:39:11.859Z,12.48
2023-02-16T05:41:38.707Z,12.43
2023-02-16T05:44:07.578Z,12.30
2023-02-16T05:46:37.710Z,12.85
2023-02-16T05:49:05.403Z,12.25
2023-02-16T05:51:32.591Z,13.63
2023-02-16T05:53:59.822Z,12.35
2023-02-16T05:56:28.292Z,12.70
2023-02-16T05:58:55.491Z,12.93
2023-02-16T06:01:22.459Z,11.77
2023-02-16T06:03:51.612Z,13.10
2023-02-16T06:06:18.656Z,14.73
2023-02-16T06:08:46.231Z,13.55
2023-02-16T06:11:31.660Z,12.95
2023-02-16T06:13:59.467Z,13.18
2023-02-16T06:16:28.867Z,13.13
2023-02-16T06:18:57.787Z,11.93
2023-02-16T06:21:25.374Z,14.23
2023-02-16T06:23:52.258Z,12.98
2023-02-16T06:26:20.523Z,13.65
2023-02-16T06:28:47.924Z,12.82
2023-02-16T06:31:14.828Z,15.05
2023-02-16T06:33:43.305Z,13.15
2023-02-16T06:36:11.934Z,12.90
2023-02-16T06:38:38.721Z,13.63
2023-02-16T06:41:06.124Z,13.65
2023-02-16T06:43:33.224Z,13.18
2023-02-16T06:46:00.067Z,15.00
2023-02-16T06:48:26.847Z,13.05
2023-02-16T06:50:53.800Z,12.82
2023-02-16T06:53:21.910Z,12.80
2023-02-16T06:55:51.539Z,11.93
2023-02-16T06:58:18.317Z,13.23
2023-02-16T07:00:45.497Z,12.82
2023-02-16T07:03:12.300Z,14.63
2023-02-16T07:05:39.200Z,13.15
2023-02-16T07:08:05.962Z,12.20
2023-02-16T07:10:48.695Z,12.52
2023-02-16T07:13:16.704Z,13.20
2023-02-16T07:15:43.441Z,13.63
2023-02-16T07:18:10.213Z,14.35
2023-02-16T07:20:38.011Z,12.38
2023-02-16T07:23:05.041Z,12.50
2023-02-16T07:25:31.756Z,12.35
2023-02-16T07:27:59.988Z,14.82
2023-02-16T07:30:26.707Z,14.32
2023-02-16T07:32:53.532Z,12.75
2023-02-16T07:35:20.336Z,13.77
2023-02-16T07:37:47.195Z,12.35
2023-02-16T07:40:13.998Z,13.10
2023-02-16T07:42:40.772Z,12.48
2023-02-16T07:45:09.894Z,12.25
2023-02-16T07:47:36.730Z,12.95
2023-02-16T07:50:03.592Z,11.88
2023-02-16T07:52:31.384Z,13.02
2023-02-16T07:54:59.018Z,12.75
2023-02-16T07:57:26.151Z,12.25
2023-02-16T07:59:53.260Z,11.55
2023-02-16T08:02:23.284Z,10.30
2023-02-16T08:04:52.904Z,11.18
2023-02-16T08:07:19.936Z,10.35
2023-02-16T08:09:46.707Z,11.38
2023-02-16T08:12:16.122Z,13.48
2023-02-16T08:14:43.171Z,13.93
2023-02-16T08:17:10.344Z,13.23
2023-02-16T08:19:38.607Z,13.82
2023-02-16T08:22:08.296Z,13.40
2023-02-16T08:24:35.917Z,13.55
2023-02-16T08:27:04.359Z,12.80
2023-02-16T08:29:31.690Z,13.45
2023-02-16T08:31:58.797Z,14.95
2023-02-16T08:34:26.635Z,12.98
2023-02-16T08:36:56.866Z,15.52
2023-02-16T08:39:26.700Z,12.23
2023-02-16T08:41:54.668Z,16.50
2023-02-16T08:44:24.163Z,13.75
2023-02-16T08:46:52.843Z,14.75
2023-02-16T08:49:22.070Z,12.38
2023-02-16T08:51:52.888Z,12.00
2023-02-16T08:54:23.133Z,12.60
2023-02-16T08:56:50.802Z,12.15
2023-02-16T08:59:19.480Z,11.38
2023-02-16T09:01:46.745Z,14.57
2023-02-16T09:04:16.314Z,11.85
2023-02-16T09:06:45.279Z,12.73
2023-02-16T09:09:13.252Z,15.25
2023-02-16T09:11:41.664Z,11.90
2023-02-16T09:14:09.367Z,12.10
2023-02-16T09:16:39.527Z,11.93
2023-02-16T09:19:06.727Z,11.43
2023-02-16T09:21:33.839Z,11.30
2023-02-16T09:24:02.302Z,11.57
2023-02-16T09:26:32.819Z,12.52
2023-02-16T09:29:02.056Z,12.35
2023-02-16T09:31:31.064Z,14.30
2023-02-16T09:34:01.320Z,12.65
2023-02-16T09:36:28.781Z,12.60
2023-02-16T09:38:56.403Z,11.90
2023-02-16T09:41:36.645Z,13.85
2023-02-16T09:44:17.843Z,12.80
2023-02-16T09:46:46.061Z,13.30
2023-02-16T09:49:24.820Z,12.57
2023-02-16T09:52:00.873Z,13.52
2023-02-16T09:54:36.517Z,14.38
2023-02-16T09:57:08.708Z,14.02
2023-02-16T09:59:47.353Z,12.98
2023-02-16T10:02:34.644Z,14.90
2023-02-16T10:05:17.394Z,12.13
2023-02-16T10:07:54.769Z,13.73
2023-02-16T10:10:24.262Z,12.90
2023-02-16T10:12:56.996Z,12.88
2023-02-16T10:15:28.615Z,14.98
2023-02-16T10:17:58.499Z,13.60
2023-02-16T10:20:29.002Z,14.98
2023-02-16T10:23:02.699Z,14.27
2023-02-16T10:25:39.463Z,11.48
2023-02-16T10:28:16.042Z,13.90
2023-02-16T10:30:49.097Z,13.95
2023-02-16T10:33:22.419Z,14.57
2023-02-16T10:35:52.435Z,13.80
2023-02-16T10:38:25.485Z,12.77
2023-02-16T10:40:59.293Z,13.25
2023-02-16T10:43:40.361Z,12.25
2023-02-16T10:46:10.819Z,14.00
2023-02-16T10:48:38.155Z,11.65
2023-02-16T10:51:09.392Z,13.45
2023-02-16T10:53:41.985Z,12.70
2023-02-16T10:56:38.303Z,13.50
2023-02-16T10:59:07.724Z,13.32
2023-02-16T11:01:38.742Z,12.20
2023-02-16T11:04:05.969Z,11.63
2023-02-16T11:06:36.434Z,13.75
2023-02-16T11:09:04.563Z,12.90
2023-02-16T11:11:36.995Z,13.25
2023-02-16T11:14:08.973Z,13.88
2023-02-16T11:16:37.321Z,12.43
2023-02-16T11:19:07.866Z,13.48
2023-02-16T11:21:47.454Z,13.23
2023-02-16T11:24:25.318Z,14.57
2023-02-16T11:29:26.773Z,11.80
2023-02-16T11:31:56.434Z,12.63
2023-02-16T11:34:30.351Z,11.95
2023-02-16T11:37:05.142Z,12.13
2023-02-16T11:39:37.328Z,11.98
2023-02-16T11:42:08.944Z,14.38
2023-02-16T11:44:37.968Z,13.82
2023-02-16T11:47:08.945Z,11.98
2023-02-16T11:49:38.377Z,14.57
2023-02-16T11:52:27.155Z,11.75
2023-02-16T11:54:55.974Z,13.52
2023-02-16T11:57:25.202Z,11.60
2023-02-16T11:59:52.237Z,12.93
2023-02-16T12:02:45.242Z,14.85
2023-02-16T12:05:26.867Z,12.88
2023-02-16T12:08:10.285Z,13.57
2023-02-16T12:10:45.531Z,13.90
2023-02-16T12:13:22.303Z,13.27
2023-02-16T12:15:59.622Z,12.63
2023-02-16T12:18:41.515Z,12.32
2023-02-16T12:21:21.267Z,11.32
2023-02-16T12:24:01.203Z,13.88
2023-02-16T12:26:43.037Z,15.10
2023-02-16T12:29:23.133Z,13.65
2023-02-16T12:32:04.747Z,11.43
2023-02-16T12:34:42.818Z,12.80
2023-02-16T12:37:22.515Z,14.65
2023-02-16T12:39:59.212Z,12.07
2023-02-16T12:42:48.441Z,14.90
2023-02-16T12:45:19.940Z,14.18
2023-02-16T12:47:52.392Z,12.15
2023-02-16T12:50:24.287Z,12.75
2023-02-16T12:55:26.398Z,13.90
2023-02-16T12:58:02.124Z,15.10
2023-02-16T13:00:41.187Z,15.50
2023-02-16T13:03:23.444Z,13.10
2023-02-16T13:06:02.489Z,11.57
2023-02-16T13:08:39.155Z,13.70
2023-02-16T13:11:16.521Z,11.45
2023-02-16T13:13:47.236Z,11.32
2023-02-16T13:16:29.559Z,13.02
2023-02-16T13:18:57.219Z,13.70
2023-02-16T13:21:51.240Z,13.20
2023-02-16T13:24:32.780Z,11.55
2023-02-16T13:27:19.913Z,12.45
2023-02-16T13:30:01.314Z,10.70
2023-02-16T13:32:50.125Z,13.70
2023-02-16T13:35:30.097Z,11.38
2023-02-16T13:38:25.891Z,12.02
2023-02-16T13:43:50.481Z,14.15
2023-02-16T13:46:26.878Z,11.48
2023-02-16T13:48:54.127Z,12.23
2023-02-16T13:51:23.512Z,14.15
2023-02-16T13:53:56.268Z,14.45
2023-02-16T13:56:35.291Z,14.48
2023-02-16T13:59:35.983Z,12.60
2023-02-16T14:02:04.121Z,14.13
2023-02-16T14:05:04.117Z,11.30
2023-02-16T14:07:38.051Z,9.93
2023-02-16T14:10:12.883Z,11.25
2023-02-16T14:12:41.248Z,11.57
2023-02-16T14:15:18.484Z,9.15
2023-02-16T14:17:45.985Z,11.18
2023-02-16T14:20:29.077Z,11.80
2023-02-16T14:22:57.529Z,10.65
2023-02-16T14:25:41.290Z,10.85
2023-02-16T14:30:58.828Z,8.90
2023-02-16T14:33:39.535Z,9.43
2023-02-16T14:36:14.292Z,10.40
2023-02-16T14:38:45.968Z,10.32
2023-02-16T14:41:25.947Z,9.77
2023-02-16T14:43:56.166Z,10.85
2023-02-16T14:46:47.350Z,11.40
2023-02-16T14:49:52.083Z,10.23
2023-02-16T14:52:56.651Z,10.77
2023-02-16T14:56:02.176Z,9.57
2023-02-16T14:58:44.970Z,11.35
2023-02-16T15:01:14.465Z,9.13
2023-02-16T15:03:48.297Z,9.52
2023-02-16T15:06:29.633Z,9.38
2023-02-16T15:08:59.186Z,10.45
2023-02-16T15:11:34.789Z,8.60
2023-02-16T15:14:06.105Z,8.40
2023-02-16T15:16:33.714Z,8.95
2023-02-16T15:19:08.325Z,8.90
2023-02-16T15:21:35.280Z,8.43
2023-02-16T15:24:03.236Z,7.93
2023-02-16T15:26:33.667Z,7.32
2023-02-16T15:29:13.455Z,8.48
2023-02-16T15:31:40.642Z,7.65
2023-02-16T15:34:13.581Z,7.55
2023-02-16T15:36:42.747Z,8.30
2023-02-16T15:39:15.767Z,7.82
2023-02-16T15:41:48.359Z,8.25
2023-02-16T15:44:32.653Z,7.80
2023-02-16T15:47:08.132Z,6.63
2023-02-16T15:49:38.999Z,7.70
2023-02-16T15:52:10.004Z,7.03
2023-02-16T15:54:39.327Z,7.30
2023-02-16T15:57:16.758Z,6.35
2023-02-16T15:59:48.964Z,7.13
2023-02-16T16:02:18.691Z,7.03
2023-02-16T16:04:48.798Z,7.65
2023-02-16T16:07:19.822Z,7.40
2023-02-16T16:09:47.682Z,7.72
2023-02-16T16:12:17.517Z,7.15
2023-02-16T16:14:51.654Z,8.20
2023-02-16T16:17:23.618Z,7.45
2023-02-16T16:19:52.111Z,6.47
2023-02-16T16:22:34.449Z,8.27
2023-02-16T16:25:03.231Z,7.50
2023-02-16T16:27:33.207Z,6.78
2023-02-16T16:30:29.554Z,8.48
2023-02-16T16:33:02.508Z,7.90
2023-02-16T16:35:39.197Z,6.72
2023-02-16T16:38:21.449Z,6.68
2023-02-16T16:40:53.032Z,7.47
2023-02-16T16:43:22.945Z,8.27
2023-02-16T16:45:57.894Z,8.02
2023-02-16T16:48:29.261Z,7.65
2023-02-16T16:51:10.108Z,9.60
2023-02-16T16:53:50.803Z,8.40
2023-02-16T16:56:20.203Z,8.10
2023-02-16T16:58:50.115Z,8.65
2023-02-16T17:01:20.204Z,8.43
2023-02-16T17:03:47.502Z,8.60
2023-02-16T17:06:14.760Z,8.18
2023-02-16T17:08:42.054Z,8.93
2023-02-16T17:11:13.782Z,9.02
2023-02-16T17:16:14.599Z,8.05
2023-02-16T17:18:42.940Z,8.35
2023-02-16T17:21:12.842Z,8.57
2023-02-16T17:23:52.569Z,9.82
2023-02-16T17:26:19.990Z,10.07
2023-02-16T17:28:46.990Z,10.10
2023-02-16T17:31:13.989Z,9.32
2023-02-16T17:33:42.233Z,10.02
2023-02-16T17:36:13.068Z,8.68
2023-02-16T17:38:40.220Z,8.90
2023-02-16T17:41:07.256Z,9.13
2023-02-16T17:43:34.214Z,9.30
2023-02-16T17:46:04.753Z,8.65
2023-02-16T17:48:33.168Z,8.07
2023-02-16T17:51:01.858Z,9.80
2023-02-16T17:53:29.214Z,9.15
2023-02-16T17:55:58.333Z,7.97
2023-02-16T17:58:25.902Z,9.30
2023-02-16T18:00:55.173Z,9.13
2023-02-16T18:03:23.102Z,9.85
2023-02-16T18:05:50.233Z,7.60
2023-02-16T18:08:18.482Z,9.98
2023-02-16T18:10:48.009Z,8.63
2023-02-16T18:13:15.787Z,8.60
2023-02-16T18:15:45.689Z,10.13
2023-02-16T18:18:13.719Z,9.93
2023-02-16T18:20:40.817Z,10.38
2023-02-16T18:23:08.057Z,8.13
2023-02-16T18:25:36.556Z,8.80
2023-02-16T18:28:03.842Z,9.63
2023-02-16T18:30:31.251Z,10.15
2023-02-16T18:32:58.551Z,9.80
2023-02-16T18:35:25.530Z,10.40
2023-02-16T18:37:52.571Z,9.85
2023-02-16T18:40:20.344Z,9.18
2023-02-16T18:42:48.742Z,11.77
2023-02-16T18:45:15.888Z,9.43
2023-02-16T18:47:45.568Z,10.55
2023-02-16T18:50:12.870Z,9.68
2023-02-16T18:52:43.464Z,10.65
2023-02-16T18:55:11.047Z,10.23
2023-02-16T18:57:38.149Z,9.30
2023-02-16T19:00:11.281Z,8.50
2023-02-16T19:02:41.043Z,11.18
2023-02-16T19:05:08.949Z,9.70
2023-02-16T19:07:41.493Z,11.27
2023-02-16T19:10:10.926Z,10.77
2023-02-16T19:12:38.304Z,9.75
2023-02-16T19:15:08.409Z,10.70
2023-02-16T19:17:36.050Z,9.75
2023-02-16T19:20:03.582Z,10.20
2023-02-16T19:22:33.706Z,10.13
2023-02-16T19:25:01.243Z,12.80
2023-02-16T19:27:28.372Z,10.77
2023-02-16T19:29:55.430Z,11.52
2023-02-16T19:32:24.525Z,9.65
2023-02-16T19:34:54.091Z,10.85
2023-02-16T19:37:28.849Z,11.57
2023-02-16T19:39:56.348Z,9.68
2023-02-16T19:42:23.752Z,10.70
2023-02-16T19:44:51.217Z,11.05
2023-02-16T19:47:18.360Z,9.50
2023-02-16T19:49:49.552Z,9.82
2023-02-16T19:52:17.488Z,10.50
2023-02-16T19:54:44.985Z,9.55
2023-02-16T19:57:12.188Z,12.23
2023-02-16T19:59:39.304Z,10.10
2023-02-16T20:02:06.820Z,9.18
2023-02-16T20:04:33.669Z,10.23
2023-02-16T20:07:04.501Z,10.20
2023-02-16T20:09:31.547Z,11.07
2023-02-16T20:11:59.641Z,10.25
2023-02-16T20:14:27.032Z,11.02
2023-02-16T20:16:54.062Z,9.85
2023-02-16T20:19:21.251Z,9.05
2023-02-16T20:21:48.449Z,10.00
2023-02-16T20:24:17.054Z,8.70
2023-02-16T20:26:45.758Z,8.05
2023-02-16T20:29:17.914Z,8.23
2023-02-16T20:31:50.208Z,9.85
2023-02-16T20:34:17.333Z,9.30
2023-02-16T20:36:45.704Z,7.80
2023-02-16T20:39:14.045Z,10.82
2023-02-16T20:41:42.593Z,10.68
2023-02-16T20:44:09.794Z,8.80
2023-02-16T20:46:37.842Z,9.48
2023-02-16T20:49:05.248Z,8.80
2023-02-16T20:51:33.029Z,8.80
2023-02-16T20:54:04.258Z,10.32
2023-02-16T20:56:31.373Z,10.32
2023-02-16T20:58:59.739Z,9.43
2023-02-16T21:01:29.688Z,9.65
2023-02-16T21:03:58.200Z,8.60
2023-02-16T21:06:25.814Z,8.50
2023-02-16T21:08:53.406Z,6.90
2023-02-16T21:11:20.601Z,8.77
2023-02-16T21:13:50.444Z,11.32
2023-02-16T21:16:19.488Z,9.07
2023-02-16T21:18:46.364Z,9.27
2023-02-16T21:21:16.026Z,9.63
2023-02-16T21:23:44.851Z,10.65
2023-02-16T21:26:12.300Z,9.48
2023-02-16T21:28:40.092Z,8.20
2023-02-16T21:31:09.926Z,8.80
2023-02-16T21:33:38.526Z,10.52
2023-02-16T21:36:07.769Z,10.27
2023-02-16T21:38:36.262Z,10.98
2023-02-16T21:41:23.078Z,9.85
2023-02-16T21:43:51.476Z,9.20
2023-02-16T21:46:18.838Z,9.57
2023-02-16T21:48:50.412Z,8.65
2023-02-16T21:51:20.524Z,8.68
2023-02-16T21:53:48.003Z,8.77
2023-02-16T21:56:33.151Z,9.57
2023-02-16T21:59:00.630Z,10.13
2023-02-16T22:01:30.832Z,9.60
2023-02-16T22:04:08.826Z,9.95
2023-02-16T22:06:38.871Z,9.07
2023-02-16T22:09:07.866Z,9.38
2023-02-16T22:11:35.337Z,9.23
2023-02-16T22:14:04.123Z,9.75
2023-02-16T22:16:39.963Z,9.48
2023-02-16T22:19:11.586Z,9.60
2023-02-16T22:21:40.320Z,9.55
2023-02-16T22:24:08.334Z,9.45
2023-02-16T22:26:36.279Z,8.90
2023-02-16T22:29:05.653Z,7.97
2023-02-16T22:31:34.917Z,8.27
2023-02-16T22:34:04.435Z,8.85
2023-02-16T22:36:33.669Z,7.97
2023-02-16T22:39:00.506Z,6.18
2023-02-16T22:41:27.518Z,7.30
2023-02-16T22:43:55.185Z,6.78
2023-02-16T22:46:24.189Z,7.95
2023-02-16T22:48:52.087Z,6.47
2023-02-16T22:51:20.842Z,7.00
2023-02-16T22:53:48.971Z,6.13
2023-02-16T22:56:20.032Z,5.25
2023-02-16T22:58:48.150Z,5.28
2023-02-16T23:01:17.473Z,6.00
2023-02-16T23:03:46.593Z,5.93
2023-02-16T23:06:15.052Z,6.35
2023-02-16T23:08:44.206Z,6.30
2023-02-16T23:11:13.294Z,5.45
2023-02-16T23:13:40.052Z,6.03
2023-02-16T23:16:09.067Z,7.30
2023-02-16T23:18:36.386Z,8.32
2023-02-16T23:21:07.577Z,7.38
2023-02-16T23:23:34.527Z,6.88
2023-02-16T23:26:02.584Z,6.20
2023-02-16T23:28:30.719Z,7.40
2023-02-16T23:30:58.113Z,8.05
2023-02-16T23:33:25.257Z,7.68
2023-02-16T23:35:52.507Z,7.78
2023-02-16T23:38:19.288Z,7.07
2023-02-16T23:40:55.654Z,6.13
2023-02-16T23:43:22.457Z,7.50
2023-02-16T23:45:50.810Z,7.75
2023-02-16T23:48:17.815Z,6.05
2023-02-16T23:50:44.986Z,5.80
2023-02-16T23:53:12.997Z,5.95
2023-02-16T23:55:41.188Z,5.53
2023-02-16T23:58:08.132Z,6.70
